createdAt,value
2022-10-18T00:09:14.650Z,5.13
2022-10-18T00:19:17.708Z,8.15
2022-10-18T00:29:22.176Z,5.50
2022-10-18T00:39:25.122Z,5.25
2022-10-18T00:49:33.186Z,6.03
2022-10-18T00:59:37.454Z,6.18
2022-10-18T01:09:47.890Z,5.55
2022-10-18T01:20:17.839Z,6.30
2022-10-18T01:30:39.410Z,6.95
2022-10-18T01:40:44.501Z,6.30
2022-10-18T01:50:48.852Z,7.32
2022-10-18T02:01:01.271Z,5.15
2022-10-18T02:11:08.722Z,5.85
2022-10-18T02:21:16.222Z,5.20
2022-10-18T02:31:27.407Z,4.97
2022-10-18T02:41:32.268Z,5.60
2022-10-18T02:51:36.758Z,4.70
2022-10-18T03:01:39.873Z,4.20
2022-10-18T03:11:44.481Z,5.13
2022-10-18T03:21:47.267Z,4.85
2022-10-18T03:31:51.532Z,3.70
2022-10-18T03:41:54.548Z,5.05
2022-10-18T03:51:59.307Z,4.47
2022-10-18T04:02:02.248Z,5.22
2022-10-18T04:12:06.876Z,4.90
2022-10-18T04:22:10.685Z,4.85
2022-10-18T04:32:15.013Z,4.78
2022-10-18T04:42:17.843Z,7.18
2022-10-18T04:52:22.559Z,4.25
2022-10-18T05:02:25.500Z,5.05
2022-10-18T05:12:30.413Z,4.93
2022-10-18T05:22:34.905Z,4.05
2022-10-18T05:32:39.551Z,3.67
2022-10-18T05:42:42.661Z,4.53
2022-10-18T05:52:47.025Z,5.25
2022-10-18T06:02:49.945Z,4.65
2022-10-18T06:12:54.369Z,5.00
2022-10-18T06:22:57.262Z,4.28
2022-10-18T06:33:01.989Z,5.00
2022-10-18T06:43:21.032Z,6.68
2022-10-18T06:53:26.587Z,7.00
2022-10-18T07:03:30.212Z,7.88
2022-10-18T07:13:35.483Z,6.32
2022-10-18T07:23:40.848Z,5.30
2022-10-18T07:33:45.153Z,6.43
2022-10-18T07:43:52.915Z,6.00
2022-10-18T07:53:57.356Z,5.97
2022-10-18T08:04:06.980Z,4.78
2022-10-18T08:14:15.583Z,5.90
2022-10-18T08:24:20.813Z,4.45
2022-10-18T08:34:29.000Z,3.58
2022-10-18T08:44:55.292Z,4.82
2022-10-18T08:55:38.634Z,3.97
2022-10-18T09:06:23.519Z,5.22
2022-10-18T09:16:36.561Z,4.43
2022-10-18T09:26:58.726Z,4.70
2022-10-18T09:37:11.579Z,4.03
2022-10-18T09:47:25.390Z,4.47
2022-10-18T09:57:40.621Z,4.93
2022-10-18T10:07:58.005Z,6.10
2022-10-18T10:18:19.151Z,4.40
2022-10-18T10:28:31.963Z,4.85
2022-10-18T10:38:45.561Z,4.85
2022-10-18T10:49:35.092Z,5.38
2022-10-18T11:10:07.021Z,6.55
2022-10-18T11:20:25.099Z,6.78
2022-10-18T11:41:24.915Z,6.35
2022-10-18T11:51:55.969Z,5.15
2022-10-18T12:02:27.398Z,6.70
2022-10-18T12:23:01.650Z,6.20
2022-10-18T12:33:33.717Z,6.50
2022-10-18T12:43:47.692Z,8.63
2022-10-18T12:54:12.967Z,8.65
2022-10-18T13:04:40.374Z,8.85
2022-10-18T13:15:12.462Z,9.35
2022-10-18T13:25:38.494Z,8.27
2022-10-18T13:35:56.780Z,7.93
2022-10-18T13:46:11.053Z,8.73
2022-10-18T13:56:37.859Z,6.75
2022-10-18T14:06:48.200Z,4.82
2022-10-18T14:17:08.125Z,5.20
2022-10-18T14:27:23.392Z,3.92
2022-10-18T14:37:32.190Z,3.95
2022-10-18T14:47:43.864Z,3.40
2022-10-18T15:09:05.953Z,3.47
2022-10-18T15:19:47.475Z,5.63
2022-10-18T15:29:55.351Z,5.47
2022-10-18T15:40:31.916Z,7.70
2022-10-18T15:51:05.224Z,6.38
2022-10-18T16:01:20.507Z,8.90
2022-10-18T16:11:29.497Z,5.45
2022-10-18T16:21:39.347Z,6.25
2022-10-18T16:32:07.571Z,7.15
2022-10-18T16:42:18.230Z,8.05
2022-10-18T16:52:29.893Z,11.90
2022-10-18T17:02:43.773Z,7.85
2022-10-18T17:13:04.187Z,7.45
2022-10-18T17:23:14.070Z,5.93
2022-10-18T17:33:25.804Z,5.53
2022-10-18T17:43:31.883Z,6.22
2022-10-18T17:53:47.941Z,6.47
2022-10-18T18:14:37.860Z,4.53
2022-10-18T18:24:50.053Z,5.80
2022-10-18T18:35:06.197Z,7.43
2022-10-18T18:45:12.050Z,4.60
2022-10-18T18:55:24.041Z,5.55
2022-10-18T19:05:32.411Z,4.15
2022-10-18T19:15:40.872Z,4.03
2022-10-18T19:25:52.199Z,2.85
2022-10-18T19:35:56.916Z,1.98
2022-10-18T19:46:12.596Z,3.58
2022-10-18T19:56:33.701Z,2.80
2022-10-18T20:06:43.192Z,1.90
2022-10-18T20:16:50.778Z,2.72
2022-10-18T20:26:58.541Z,2.75
2022-10-18T20:37:08.255Z,3.05
2022-10-18T20:47:14.275Z,2.30
2022-10-18T20:57:24.328Z,2.53
2022-10-18T21:07:34.117Z,2.00
2022-10-18T21:17:42.374Z,2.08
2022-10-18T21:27:48.554Z,1.35
2022-10-18T21:38:00.499Z,1.55
2022-10-18T21:48:10.267Z,2.33
2022-10-18T21:58:20.347Z,2.05
2022-10-18T22:08:26.385Z,3.03
2022-10-18T22:18:38.879Z,1.13
2022-10-18T22:28:46.352Z,1.40
2022-10-18T22:38:52.586Z,1.70
2022-10-18T22:49:02.210Z,1.27
2022-10-18T22:59:12.865Z,2.45
2022-10-18T23:09:22.871Z,3.72
2022-10-18T23:19:37.321Z,2.80
2022-10-18T23:29:40.263Z,3.53
2022-10-18T23:39:44.955Z,1.92
2022-10-18T23:49:50.269Z,1.20
2022-10-18T23:59:54.631Z,1.45
